Silver Soul — HP3446 — position and weather

sailwx.info

Track history (hours):
 
Tides and Currents Weather Stations Pressure Air Temp Water Temp Dewpoint Dewpoint Depression Visibility Wind Speed Wind Dir Waves Ship Positions

Silver Soul

Last reported at 2017-Nov-18 22:23 UTC. Time now 2017-Nov-20 00:24 UTC.
Position N 46°41' W 007°31'.

Length 184 m; draft 7.8 m.

Type: Cargo ship. MMSI: 351852000.

Date/timePositionNaut miles runAvg speedWind from/ knotsBaromVisibWave heightAir tempDewpointWater temp
2017-Nov-18 22:23N 46°41' W 007°31'1914.2
2017-Nov-18 21:05N 46°57' W 007°19'514.4
2017-Nov-18 20:43N 47°02' W 007°15'414.1
2017-Nov-18 20:26N 47°06' W 007°12'914.4
2017-Nov-18 19:50N 47°13' W 007°06'514.3
2017-Nov-18 19:28N 47°17' W 007°02'714.1
2017-Nov-18 18:59N 47°24' W 006°58'814.5
2017-Nov-18 18:26N 47°31' W 006°53'715.2
2017-Nov-18 17:59N 47°37' W 006°48'1116.3
2017-Nov-18 17:20N 47°46' W 006°41'411.7
2017-Nov-18 16:58N 47°50' W 006°38'814.1
2017-Nov-18 16:26N 47°57' W 006°32'713.7
2017-Nov-18 15:55N 48°03' W 006°28'1613.0
2017-Nov-18 14:42N 48°17' W 006°16'313.0
2017-Nov-18 14:26N 48°20' W 006°14'1513.1
2017-Nov-18 13:17N 48°33' W 006°03'413.4
2017-Nov-18 13:00N 48°36' W 006°01'713.7
2017-Nov-18 12:30N 48°43' W 005°56'813.9
2017-Nov-18 11:57N 48°50' W 005°51'1014.5
2017-Nov-18 11:14N 48°56' W 005°39'515.1
2017-Nov-18 10:53N 48°59' W 005°32'615.5
2017-Nov-18 10:30N 49°02' W 005°24'915.7
2017-Nov-18 09:57N 49°07' W 005°13'1115.7
2017-Nov-18 09:17N 49°12' W 004°59'415.6
2017-Nov-18 09:00N 49°14' W 004°54'815.4
2017-Nov-18 08:28N 49°18' W 004°43'714.9
2017-Nov-18 08:00N 49°22' W 004°33'814.7
2017-Nov-18 07:29N 49°26' W 004°24'814.0
2017-Nov-18 06:56N 49°30' W 004°14'913.5
2017-Nov-18 06:17N 49°35' W 004°02'813.1
2017-Nov-18 05:43N 49°39' W 003°52'312.9
2017-Nov-18 05:30N 49°40' W 003°48'712.8
2017-Nov-18 04:57N 49°43' W 003°38'613.0
2017-Nov-18 04:29N 49°46' W 003°31'613.3
2017-Nov-18 04:00N 49°49' W 003°22'713.8
2017-Nov-18 03:30N 49°52' W 003°12'714.7
2017-Nov-18 03:00N 49°55' W 003°02'815.4
2017-Nov-18 02:30N 49°58' W 002°51'816.2
2017-Nov-18 02:00N 50°00' W 002°39'2217.3
2017-Nov-18 00:44N 50°03' W 002°05'418.0
2017-Nov-18 00:30N 50°03' W 001°58'917.5
2017-Nov-18 00:00N 50°03' W 001°44'713.8
2017-Nov-17 23:30N 49°57' W 001°40'815.4
2017-Nov-17 23:00N 49°53' W 001°30'815.3
2017-Nov-17 22:31N 49°50' W 001°19'714.1
2017-Nov-17 22:00N 49°48' W 001°09'713.4
2017-Nov-17 21:30N 49°45' W 000°59'913.0
2017-Nov-17 20:50N 49°42' W 000°46'412.9
2017-Nov-17 20:30N 49°40' W 000°40'612.9
2017-Nov-17 20:00N 49°38' W 000°31'713.1
2017-Nov-17 19:30N 49°35' W 000°22'713.1
2017-Nov-17 19:00N 49°33' W 000°12'611.1
2017-Nov-17 18:30N 49°31' W 000°05'2 3.4
2017-Nov-17 18:00N 49°29' W 000°03'0 0.0
2017-Nov-17 17:30N 49°29' W 000°03'0 0.1
2017-Nov-17 17:00N 49°29' W 000°03'2 3.4
2017-Nov-17 16:30N 49°30' W 000°01'4 8.9
2017-Nov-17 16:00N 49°29' E 000°06'3 5.2
2017-Nov-17 15:29N 49°29' E 000°10'0 0.0
2017-Nov-17 14:59N 49°29' E 000°10'0 0.7
2017-Nov-17 14:30N 49°29' E 000°11'1 2.3
2017-Nov-17 13:58N 49°28' E 000°13'0 0.0
2017-Nov-17 13:28N 49°28' E 000°13'0 0.0
2017-Nov-17 12:58N 49°28' E 000°13'0 0.0
2017-Nov-17 12:28N 49°28' E 000°13'0 0.0
2017-Nov-17 11:58N 49°28' E 000°13'0 0.0
2017-Nov-17 11:28N 49°28' E 000°13'0 0.0
2017-Nov-17 10:58N 49°28' E 000°13'0 0.0
2017-Nov-17 10:28N 49°28' E 000°13'0 0.0
2017-Nov-17 09:58N 49°28' E 000°13'0 0.0
2017-Nov-17 09:28N 49°28' E 000°13'0 0.0
2017-Nov-17 08:58N 49°28' E 000°13'0 0.0
2017-Nov-17 08:28N 49°28' E 000°13'0 0.0
2017-Nov-17 07:58N 49°28' E 000°13'0 0.0
2017-Nov-17 07:28N 49°28' E 000°13'0 0.0
2017-Nov-17 06:58N 49°28' E 000°13'0 0.0
2017-Nov-17 06:28N 49°28' E 000°13'0 0.0
2017-Nov-17 05:58N 49°28' E 000°13'0 0.0
2017-Nov-17 05:28N 49°28' E 000°13'0 0.0
2017-Nov-17 04:58N 49°28' E 000°13'0 0.0
2017-Nov-17 04:28N 49°28' E 000°13'0 0.0
2017-Nov-17 03:58N 49°28' E 000°13'0 0.0
2017-Nov-17 03:28N 49°28' E 000°13'0 0.0
2017-Nov-17 02:58N 49°28' E 000°13'0 0.0
2017-Nov-17 02:28N 49°28' E 000°13'0 0.0
2017-Nov-17 01:58N 49°28' E 000°13'0 0.0
2017-Nov-17 01:28N 49°28' E 000°13'0 0.0
2017-Nov-17 00:58N 49°28' E 000°13'0 0.0
2017-Nov-17 00:28N 49°28' E 000°13'0 0.0
2017-Nov-16 23:58N 49°28' E 000°13'0 0.0
2017-Nov-16 23:28N 49°28' E 000°13'0 0.0
2017-Nov-16 22:58N 49°28' E 000°13'0 0.0
2017-Nov-16 22:28N 49°28' E 000°13'0 0.0
2017-Nov-16 21:58N 49°28' E 000°13'0 0.0
2017-Nov-16 21:28N 49°28' E 000°13'0 0.0
2017-Nov-16 20:58N 49°28' E 000°13'0 0.0
2017-Nov-16 20:28N 49°28' E 000°13'0 0.0
2017-Nov-16 19:58N 49°28' E 000°13'0 0.0
2017-Nov-16 19:28N 49°28' E 000°13'0 0.0
2017-Nov-16 18:58N 49°28' E 000°13'0 0.0
2017-Nov-16 18:28N 49°28' E 000°13'0 0.0
2017-Nov-16 17:58N 49°28' E 000°13'0 0.0
2017-Nov-16 17:28N 49°28' E 000°13'0 0.0
2017-Nov-16 16:58N 49°28' E 000°13'0 0.0
2017-Nov-16 16:28N 49°28' E 000°13'0 0.0
2017-Nov-16 15:58N 49°28' E 000°13'0 0.0
2017-Nov-16 15:28N 49°28' E 000°13'0 0.0
2017-Nov-16 14:58N 49°28' E 000°13'0 0.0
2017-Nov-16 14:28N 49°28' E 000°13'0 0.0
2017-Nov-16 13:58N 49°28' E 000°13'0 0.0
2017-Nov-16 13:28N 49°28' E 000°13'0 0.0
2017-Nov-16 12:58N 49°28' E 000°13'0 0.0
2017-Nov-16 12:28N 49°28' E 000°13'0 0.0
2017-Nov-16 11:58N 49°28' E 000°13'0 0.0
2017-Nov-16 11:28N 49°28' E 000°13'0 0.0
2017-Nov-16 10:58N 49°28' E 000°13'0 0.0
2017-Nov-16 10:28N 49°28' E 000°13'0 0.0
2017-Nov-16 09:58N 49°28' E 000°13'0 0.0
2017-Nov-16 09:28N 49°28' E 000°13'0 0.0
2017-Nov-16 08:58N 49°28' E 000°13'0 0.0
2017-Nov-16 08:28N 49°28' E 000°13'0 0.0
2017-Nov-16 07:58N 49°28' E 000°13'0 0.0
2017-Nov-16 07:28N 49°28' E 000°13'0 0.0
2017-Nov-16 06:58N 49°28' E 000°13'0 0.0
2017-Nov-16 06:31N 49°28' E 000°13'0 0.0
2017-Nov-16 06:01N 49°28' E 000°13'0 0.0
2017-Nov-16 05:30N 49°28' E 000°13'0 0.0
2017-Nov-16 05:00N 49°28' E 000°13'0 0.0
2017-Nov-16 04:30N 49°28' E 000°13'0 0.0
2017-Nov-16 04:00N 49°28' E 000°13'0 0.0
2017-Nov-16 03:30N 49°28' E 000°13'0 0.0
2017-Nov-16 03:00N 49°28' E 000°13'0 0.0
2017-Nov-16 02:30N 49°28' E 000°13'0 0.0
2017-Nov-16 02:00N 49°28' E 000°13'0 0.0
2017-Nov-16 01:30N 49°28' E 000°13'0 0.0
2017-Nov-16 01:00N 49°28' E 000°13'0 0.0
2017-Nov-16 00:31N 49°28' E 000°13'0 0.0
2017-Nov-16 00:00N 49°28' E 000°13'0 0.0
2017-Nov-15 23:30N 49°28' E 000°13'0 0.0
2017-Nov-15 23:00N 49°28' E 000°13'0 0.0
2017-Nov-15 22:30N 49°28' E 000°13'0 0.0
2017-Nov-15 22:00N 49°28' E 000°13'0 0.0
2017-Nov-15 21:30N 49°28' E 000°13'0 0.0
2017-Nov-15 21:00N 49°28' E 000°13'0 0.0
2017-Nov-15 20:30N 49°28' E 000°13'0 0.0
2017-Nov-15 20:00N 49°28' E 000°13'1 2.7
2017-Nov-15 19:30N 49°29' E 000°11'0 0.3
2017-Nov-15 19:00N 49°29' E 000°10'4 7.0
2017-Nov-15 18:30N 49°29' E 000°05'611.4
2017-Nov-15 18:00N 49°31' W 000°04'5 9.5
2017-Nov-15 17:31N 49°32' W 000°10'2 4.0
2017-Nov-15 17:01N 49°33' W 000°13'1 1.7
2017-Nov-15 16:31N 49°33' W 000°14'1 2.3
2017-Nov-15 16:01N 49°34' W 000°16'4 8.4
2017-Nov-15 15:30N 49°35' W 000°22'612.2
2017-Nov-15 15:00N 49°39' W 000°30'714.4
2017-Nov-15 14:30N 49°46' W 000°30'714.8
2017-Nov-15 14:00N 49°53' W 000°30'714.8
2017-Nov-15 13:30N 50°01' W 000°30'714.8
2017-Nov-15 13:00N 50°08' W 000°30'715.0
2017-Nov-15 12:30N 50°16' W 000°30'814.3
2017-Nov-15 11:59N 50°23' W 000°27'816.3
2017-Nov-15 11:30N 50°26' W 000°17'815.8
2017-Nov-15 11:00N 50°29' W 000°05'815.6
2017-Nov-15 10:30N 50°31' E 000°07'815.3
2017-Nov-15 10:00N 50°33' E 000°18'714.9
2017-Nov-15 09:30N 50°35' E 000°30'714.2
2017-Nov-15 09:00N 50°39' E 000°39'714.2
2017-Nov-15 08:30N 50°43' E 000°48'713.9
2017-Nov-15 08:00N 50°47' E 000°57'714.0
2017-Nov-15 07:30N 50°52' E 001°06'714.4
2017-Nov-15 07:00N 50°57' E 001°14'815.5
2017-Nov-15 06:30N 51°02' E 001°23'816.8
2017-Nov-15 06:00N 51°06' E 001°34'917.1
2017-Nov-15 05:30N 51°12' E 001°45'816.8
2017-Nov-15 05:00N 51°19' E 001°53'815.3
2017-Nov-15 04:30N 51°25' E 001°60'714.6
2017-Nov-15 04:00N 51°22' E 002°11'714.2
2017-Nov-15 03:30N 51°21' E 002°22'915.1
2017-Nov-15 02:56N 51°23' E 002°36'613.3
2017-Nov-15 02:30N 51°23' E 002°45'611.3
2017-Nov-15 02:00N 51°23' E 002°54'714.2
2017-Nov-15 01:30N 51°24' E 003°05'714.6
2017-Nov-15 01:00N 51°25' E 003°17'714.7
2017-Nov-15 00:30N 51°25' E 003°28'510.6
2017-Nov-15 00:00N 51°26' E 003°37'510.6
2017-Nov-14 23:30N 51°23' E 003°43'612.3
2017-Nov-14 23:00N 51°21' E 003°53'510.9
2017-Nov-14 22:30N 51°26' E 003°58'4 7.9
2017-Nov-14 22:00N 51°23' E 004°03'510.7
2017-Nov-14 21:30N 51°24' E 004°11'5 9.3
2017-Nov-14 21:00N 51°20' E 004°16'4 7.5
2017-Nov-14 20:30N 51°17' E 004°15'0 0.0
2017-Nov-14 19:58N 51°17' E 004°15'1 1.8
2017-Nov-14 19:29N 51°16' E 004°14'0 0.0
2017-Nov-14 18:59N 51°16' E 004°14'0 0.0
2017-Nov-14 18:29N 51°16' E 004°14'0 0.0
2017-Nov-14 17:59N 51°16' E 004°14'0 0.0
2017-Nov-14 17:29N 51°16' E 004°14'0 0.0
2017-Nov-14 16:59N 51°16' E 004°14'0 0.0
2017-Nov-14 16:29N 51°16' E 004°14'0 0.0
2017-Nov-14 15:59N 51°16' E 004°14'0 0.0
2017-Nov-14 15:29N 51°16' E 004°14'0 0.0
2017-Nov-14 14:59N 51°16' E 004°14'0 0.0
2017-Nov-14 14:29N 51°16' E 004°14'0 0.0
2017-Nov-14 13:59N 51°16' E 004°14'0 0.0
2017-Nov-14 13:29N 51°16' E 004°14'0 0.0
2017-Nov-14 12:59N 51°16' E 004°14'0 0.0
2017-Nov-14 12:29N 51°16' E 004°14'0 0.0
2017-Nov-14 11:59N 51°16' E 004°14'0 0.0
2017-Nov-14 11:29N 51°16' E 004°14'0 0.0
2017-Nov-14 10:58N 51°16' E 004°14'0 0.0
2017-Nov-14 10:29N 51°16' E 004°14'0 0.0
2017-Nov-14 09:59N 51°16' E 004°14'0 0.0
2017-Nov-14 09:29N 51°16' E 004°14'0 0.0
2017-Nov-14 08:56N 51°16' E 004°14'0 0.0
2017-Nov-14 08:29N 51°16' E 004°14'0 0.0
2017-Nov-14 07:59N 51°16' E 004°14'0 0.0
2017-Nov-14 07:29N 51°16' E 004°14'0 0.0
2017-Nov-14 06:59N 51°16' E 004°14'0 0.0
2017-Nov-14 06:29N 51°16' E 004°14'0 0.0
2017-Nov-14 05:59N 51°16' E 004°14'0 0.0
2017-Nov-14 05:29N 51°16' E 004°14'0 0.0
2017-Nov-14 04:59N 51°16' E 004°14'0 0.0
2017-Nov-14 04:29N 51°16' E 004°14'0 0.0
2017-Nov-14 03:59N 51°16' E 004°14'0 0.0
2017-Nov-14 03:29N 51°16' E 004°14'0 0.0
2017-Nov-14 02:59N 51°16' E 004°14'0 0.0
2017-Nov-14 02:29N 51°16' E 004°14'0 0.0
2017-Nov-14 01:59N 51°16' E 004°14'0 0.0
2017-Nov-14 01:29N 51°16' E 004°14'0 0.0
2017-Nov-14 00:59N 51°16' E 004°14'0 0.0
2017-Nov-14 00:28N 51°16' E 004°14'0 0.0
2017-Nov-13 23:58N 51°16' E 004°14'0 0.0
2017-Nov-13 23:29N 51°16' E 004°14'0 0.0
2017-Nov-13 22:58N 51°16' E 004°14'0 0.0
2017-Nov-13 22:28N 51°16' E 004°14'0 0.0
2017-Nov-13 21:58N 51°16' E 004°14'52 2.3
2017-Nov-12 23:33N 51°52' E 003°15'0 3.9
2017-Nov-12 23:30N 51°52' E 003°15'2 3.8
2017-Nov-12 22:58N 51°52' E 003°19'1 1.7
2017-Nov-12 22:30N 51°53' E 003°19'3 1.2
2017-Nov-12 20:03N 51°51' E 003°14'0 3.2
2017-Nov-12 19:58N 51°51' E 003°15'2 3.1
2017-Nov-12 19:26N 51°52' E 003°17'2 3.3
2017-Nov-12 18:55N 51°52' E 003°20'2 3.4
2017-Nov-12 18:22N 51°52' E 003°23'1 1.7
2017-Nov-12 18:00N 51°52' E 003°22'2 2.7
2017-Nov-12 17:23N 51°52' E 003°19'0 1.2
2017-Nov-12 17:00N 51°52' E 003°19'2 2.4
2017-Nov-12 16:12N 51°52' E 003°22'1 2.0
2017-Nov-12 15:55N 51°52' E 003°21'0 0.9
2017-Nov-12 15:29N 51°51' E 003°21'2 0.9
2017-Nov-12 12:46N 51°49' E 003°22'0 0.3
2017-Nov-12 12:19N 51°49' E 003°22'0 0.1
2017-Nov-12 11:43N 51°49' E 003°22'0 0.0
2017-Nov-12 10:07N 51°49' E 003°22'0 0.1
2017-Nov-12 09:49N 51°49' E 003°22'0 0.1
2017-Nov-12 09:22N 51°49' E 003°22'0 0.0
2017-Nov-12 07:52N 51°49' E 003°22'0 0.0
2017-Nov-12 07:22N 51°49' E 003°22'0 0.0
2017-Nov-12 06:58N 51°49' E 003°22'0 0.0
2017-Nov-12 06:10N 51°49' E 003°22'0 0.2
2017-Nov-12 05:46N 51°49' E 003°22'0 0.2
2017-Nov-12 05:22N 51°49' E 003°22'0 0.0
2017-Nov-12 04:58N 51°49' E 003°22'0 0.1
2017-Nov-12 04:19N 51°49' E 003°22'0 0.0
2017-Nov-12 03:58N 51°49' E 003°22'0 0.0
2017-Nov-12 03:28N 51°49' E 003°22'0 0.0
2017-Nov-12 02:58N 51°49' E 003°22'0 0.0
2017-Nov-12 02:28N 51°49' E 003°22'0 0.0
2017-Nov-12 01:16N 51°49' E 003°22'0 0.0
2017-Nov-12 00:49N 51°49' E 003°22'0 0.0
2017-Nov-12 00:07N 51°49' E 003°22'0 0.1
2017-Nov-11 23:58N 51°49' E 003°22'0 0.0
2017-Nov-11 22:52N 51°49' E 003°22'0 0.0
2017-Nov-11 21:49N 51°49' E 003°22'0 0.0
2017-Nov-11 11:45N 51°49' E 003°22'0 0.1
2017-Nov-11 11:27N 51°49' E 003°22'0 0.0
2017-Nov-11 10:33N 51°49' E 003°22'0 0.0
2017-Nov-11 09:12N 51°49' E 003°22'0 0.0
2017-Nov-11 08:54N 51°49' E 003°22'0 0.1
2017-Nov-11 08:27N 51°49' E 003°22'0 0.1
2017-Nov-11 08:00N 51°49' E 003°22'0 0.0
2017-Nov-11 07:27N 51°49' E 003°22'0 0.0
2017-Nov-11 06:54N 51°49' E 003°22'0 0.0
2017-Nov-11 06:27N 51°49' E 003°22'0 0.0
2017-Nov-11 05:57N 51°49' E 003°22'0 0.0
2017-Nov-11 05:24N 51°49' E 003°22'0 0.1
2017-Nov-11 04:51N 51°49' E 003°22'0 0.1
2017-Nov-11 04:24N 51°49' E 003°22'0 0.0
2017-Nov-11 03:45N 51°49' E 003°22'0 0.0
2017-Nov-11 03:30N 51°49' E 003°22'0 0.0
2017-Nov-11 03:00N 51°49' E 003°22'0 0.0
2017-Nov-11 02:30N 51°49' E 003°22'0 0.0
2017-Nov-11 02:00N 51°49' E 003°22'0 0.1
2017-Nov-11 01:30N 51°49' E 003°22'0 0.0
2017-Nov-11 01:00N 51°49' E 003°22'0 0.0
2017-Nov-11 00:30N 51°49' E 003°22'0 0.0
2017-Nov-11 00:00N 51°49' E 003°22'0 0.0
2017-Nov-10 23:15N 51°49' E 003°22'0 0.0
2017-Nov-10 20:42N 51°49' E 003°22'0 0.0
2017-Nov-10 15:51N 51°49' E 003°22'0 0.0
2017-Nov-10 15:12N 51°49' E 003°22'0 0.2
2017-Nov-10 14:57N 51°49' E 003°22'0 0.1
2017-Nov-10 14:21N 51°49' E 003°22'0 0.0
2017-Nov-10 14:00N 51°49' E 003°22'0 0.0
2017-Nov-10 13:18N 51°49' E 003°22'0 0.0
2017-Nov-10 13:00N 51°49' E 003°22'0 0.0
2017-Nov-10 12:30N 51°49' E 003°22'0 0.0
2017-Nov-10 12:00N 51°49' E 003°22'0 0.2
2017-Nov-10 11:30N 51°49' E 003°22'0 0.2
2017-Nov-10 11:00N 51°49' E 003°22'0 0.1
2017-Nov-10 10:30N 51°49' E 003°22'0 0.1
2017-Nov-10 09:57N 51°49' E 003°22'0 0.1
2017-Nov-10 09:30N 51°49' E 003°22'0 0.1
2017-Nov-10 08:57N 51°49' E 003°22'0 0.1
2017-Nov-10 08:03N 51°49' E 003°22'0 0.2
2017-Nov-10 07:48N 51°49' E 003°22'0 0.0
2017-Nov-10 06:54N 51°49' E 003°22'0 0.0
2017-Nov-10 06:27N 51°49' E 003°22'0 0.0
2017-Nov-10 05:54N 51°49' E 003°22'0 0.0
2017-Nov-10 05:24N 51°49' E 003°22'0 0.1
2017-Nov-10 04:45N 51°49' E 003°21'0 0.0
2017-Nov-10 04:27N 51°49' E 003°22'0 0.1
2017-Nov-10 03:54N 51°49' E 003°22'0 0.0
2017-Nov-10 03:26N 51°49' E 003°22'0 0.0
2017-Nov-10 03:00N 51°49' E 003°22'0 0.0
2017-Nov-10 02:26N 51°49' E 003°22'0 0.1
2017-Nov-10 01:57N 51°49' E 003°22'0 0.0
2017-Nov-10 00:50N 51°49' E 003°21'0 0.0
2017-Nov-09 23:59N 51°49' E 003°21'0 0.0
2017-Nov-09 23:20N 51°49' E 003°22'0 0.0
2017-Nov-09 22:50N 51°49' E 003°22'0 0.1
2017-Nov-09 22:26N 51°49' E 003°22'0 0.0
2017-Nov-09 21:59N 51°49' E 003°22'0 0.0
2017-Nov-09 21:26N 51°49' E 003°22'0 0.1
2017-Nov-09 20:59N 51°49' E 003°22'0 0.0
2017-Nov-09 20:26N 51°49' E 003°22'0 0.0
2017-Nov-09 19:50N 51°49' E 003°22'0 0.0
2017-Nov-09 19:29N 51°49' E 003°22'0 0.0
2017-Nov-09 18:56N 51°49' E 003°22'0 0.1
2017-Nov-09 18:26N 51°49' E 003°22'0 0.0
2017-Nov-09 17:59N 51°49' E 003°22'0 0.0
2017-Nov-09 17:29N 51°49' E 003°22'0 0.0
2017-Nov-09 16:23N 51°49' E 003°22'0 0.0
2017-Nov-09 11:29N 51°49' E 003°21'0 0.1
2017-Nov-09 10:59N 51°49' E 003°21'0 0.0
2017-Nov-09 10:11N 51°49' E 003°21'0 0.1
2017-Nov-09 09:59N 51°49' E 003°21'0 0.1
2017-Nov-09 09:20N 51°49' E 003°21'0 0.1
2017-Nov-09 08:59N 51°49' E 003°21'0 0.0
2017-Nov-09 08:29N 51°49' E 003°21'0 0.0
2017-Nov-09 07:56N 51°49' E 003°21'0 0.0
2017-Nov-09 07:29N 51°49' E 003°21'0 0.0
2017-Nov-09 06:26N 51°49' E 003°21'0 0.1
2017-Nov-09 05:53N 51°49' E 003°21'0 0.0
2017-Nov-09 05:26N 51°49' E 003°21'0 0.0
2017-Nov-09 04:59N 51°49' E 003°21'0 0.0
2017-Nov-09 04:29N 51°49' E 003°21'0 0.0
2017-Nov-09 03:59N 51°49' E 003°21'0 0.0
2017-Nov-09 02:53N 51°49' E 003°21'0 0.0
2017-Nov-09 01:14N 51°49' E 003°21'0 0.0
2017-Nov-09 00:59N 51°49' E 003°21'0 0.0
2017-Nov-09 00:26N 51°49' E 003°21'0 0.0
2017-Nov-08 23:47N 51°49' E 003°21'0 0.0
2017-Nov-08 22:26N 51°49' E 003°21'  
Track history (hours):
 
Tides and Currents Weather Stations Pressure Air Temp Water Temp Dewpoint Dewpoint Depression Visibility Wind Speed Wind Dir Waves Ship Positions

Silver Soul

Last reported at 2017-Nov-18 22:23 UTC. Time now 2017-Nov-20 00:24 UTC.
Position N 46°41' W 007°31'.

Length 184 m; draft 7.8 m.

Type: Cargo ship. MMSI: 351852000.

Date/timePositionNaut miles runAvg speedWind from/ knotsBaromVisibWave heightAir tempDewpointWater temp
2017-Nov-18 22:23N 46°41' W 007°31'1914.2
2017-Nov-18 21:05N 46°57' W 007°19'514.4
2017-Nov-18 20:43N 47°02' W 007°15'414.1
2017-Nov-18 20:26N 47°06' W 007°12'914.4
2017-Nov-18 19:50N 47°13' W 007°06'514.3
2017-Nov-18 19:28N 47°17' W 007°02'714.1
2017-Nov-18 18:59N 47°24' W 006°58'814.5
2017-Nov-18 18:26N 47°31' W 006°53'715.2
2017-Nov-18 17:59N 47°37' W 006°48'1116.3
2017-Nov-18 17:20N 47°46' W 006°41'411.7
2017-Nov-18 16:58N 47°50' W 006°38'814.1
2017-Nov-18 16:26N 47°57' W 006°32'713.7
2017-Nov-18 15:55N 48°03' W 006°28'1613.0
2017-Nov-18 14:42N 48°17' W 006°16'313.0
2017-Nov-18 14:26N 48°20' W 006°14'1513.1
2017-Nov-18 13:17N 48°33' W 006°03'413.4
2017-Nov-18 13:00N 48°36' W 006°01'713.7
2017-Nov-18 12:30N 48°43' W 005°56'813.9
2017-Nov-18 11:57N 48°50' W 005°51'1014.5
2017-Nov-18 11:14N 48°56' W 005°39'515.1
2017-Nov-18 10:53N 48°59' W 005°32'615.5
2017-Nov-18 10:30N 49°02' W 005°24'915.7
2017-Nov-18 09:57N 49°07' W 005°13'1115.7
2017-Nov-18 09:17N 49°12' W 004°59'415.6
2017-Nov-18 09:00N 49°14' W 004°54'815.4
2017-Nov-18 08:28N 49°18' W 004°43'714.9
2017-Nov-18 08:00N 49°22' W 004°33'814.7
2017-Nov-18 07:29N 49°26' W 004°24'814.0
2017-Nov-18 06:56N 49°30' W 004°14'913.5
2017-Nov-18 06:17N 49°35' W 004°02'813.1
2017-Nov-18 05:43N 49°39' W 003°52'312.9
2017-Nov-18 05:30N 49°40' W 003°48'712.8
2017-Nov-18 04:57N 49°43' W 003°38'613.0
2017-Nov-18 04:29N 49°46' W 003°31'613.3
2017-Nov-18 04:00N 49°49' W 003°22'713.8
2017-Nov-18 03:30N 49°52' W 003°12'714.7
2017-Nov-18 03:00N 49°55' W 003°02'815.4
2017-Nov-18 02:30N 49°58' W 002°51'816.2
2017-Nov-18 02:00N 50°00' W 002°39'2217.3
2017-Nov-18 00:44N 50°03' W 002°05'418.0
2017-Nov-18 00:30N 50°03' W 001°58'917.5
2017-Nov-18 00:00N 50°03' W 001°44'713.8
2017-Nov-17 23:30N 49°57' W 001°40'815.4
2017-Nov-17 23:00N 49°53' W 001°30'815.3
2017-Nov-17 22:31N 49°50' W 001°19'714.1
2017-Nov-17 22:00N 49°48' W 001°09'713.4
2017-Nov-17 21:30N 49°45' W 000°59'913.0
2017-Nov-17 20:50N 49°42' W 000°46'412.9
2017-Nov-17 20:30N 49°40' W 000°40'612.9
2017-Nov-17 20:00N 49°38' W 000°31'713.1
2017-Nov-17 19:30N 49°35' W 000°22'713.1
2017-Nov-17 19:00N 49°33' W 000°12'611.1
2017-Nov-17 18:30N 49°31' W 000°05'2 3.4
2017-Nov-17 18:00N 49°29' W 000°03'0 0.0
2017-Nov-17 17:30N 49°29' W 000°03'0 0.1
2017-Nov-17 17:00N 49°29' W 000°03'2 3.4
2017-Nov-17 16:30N 49°30' W 000°01'4 8.9
2017-Nov-17 16:00N 49°29' E 000°06'3 5.2
2017-Nov-17 15:29N 49°29' E 000°10'0 0.0
2017-Nov-17 14:59N 49°29' E 000°10'0 0.7
2017-Nov-17 14:30N 49°29' E 000°11'1 2.3
2017-Nov-17 13:58N 49°28' E 000°13'0 0.0
2017-Nov-17 13:28N 49°28' E 000°13'0 0.0
2017-Nov-17 12:58N 49°28' E 000°13'0 0.0
2017-Nov-17 12:28N 49°28' E 000°13'0 0.0
2017-Nov-17 11:58N 49°28' E 000°13'0 0.0
2017-Nov-17 11:28N 49°28' E 000°13'0 0.0
2017-Nov-17 10:58N 49°28' E 000°13'0 0.0
2017-Nov-17 10:28N 49°28' E 000°13'0 0.0
2017-Nov-17 09:58N 49°28' E 000°13'0 0.0
2017-Nov-17 09:28N 49°28' E 000°13'0 0.0
2017-Nov-17 08:58N 49°28' E 000°13'0 0.0
2017-Nov-17 08:28N 49°28' E 000°13'0 0.0
2017-Nov-17 07:58N 49°28' E 000°13'0 0.0
2017-Nov-17 07:28N 49°28' E 000°13'0 0.0
2017-Nov-17 06:58N 49°28' E 000°13'0 0.0
2017-Nov-17 06:28N 49°28' E 000°13'0 0.0
2017-Nov-17 05:58N 49°28' E 000°13'0 0.0
2017-Nov-17 05:28N 49°28' E 000°13'0 0.0
2017-Nov-17 04:58N 49°28' E 000°13'0 0.0
2017-Nov-17 04:28N 49°28' E 000°13'0 0.0
2017-Nov-17 03:58N 49°28' E 000°13'0 0.0
2017-Nov-17 03:28N 49°28' E 000°13'0 0.0
2017-Nov-17 02:58N 49°28' E 000°13'0 0.0
2017-Nov-17 02:28N 49°28' E 000°13'0 0.0
2017-Nov-17 01:58N 49°28' E 000°13'0 0.0
2017-Nov-17 01:28N 49°28' E 000°13'0 0.0
2017-Nov-17 00:58N 49°28' E 000°13'0 0.0
2017-Nov-17 00:28N 49°28' E 000°13'0 0.0
2017-Nov-16 23:58N 49°28' E 000°13'0 0.0
2017-Nov-16 23:28N 49°28' E 000°13'0 0.0
2017-Nov-16 22:58N 49°28' E 000°13'0 0.0
2017-Nov-16 22:28N 49°28' E 000°13'0 0.0
2017-Nov-16 21:58N 49°28' E 000°13'0 0.0
2017-Nov-16 21:28N 49°28' E 000°13'0 0.0
2017-Nov-16 20:58N 49°28' E 000°13'0 0.0
2017-Nov-16 20:28N 49°28' E 000°13'0 0.0
2017-Nov-16 19:58N 49°28' E 000°13'0 0.0
2017-Nov-16 19:28N 49°28' E 000°13'0 0.0
2017-Nov-16 18:58N 49°28' E 000°13'0 0.0
2017-Nov-16 18:28N 49°28' E 000°13'0 0.0
2017-Nov-16 17:58N 49°28' E 000°13'0 0.0
2017-Nov-16 17:28N 49°28' E 000°13'0 0.0
2017-Nov-16 16:58N 49°28' E 000°13'0 0.0
2017-Nov-16 16:28N 49°28' E 000°13'0 0.0
2017-Nov-16 15:58N 49°28' E 000°13'0 0.0
2017-Nov-16 15:28N 49°28' E 000°13'0 0.0
2017-Nov-16 14:58N 49°28' E 000°13'0 0.0
2017-Nov-16 14:28N 49°28' E 000°13'0 0.0
2017-Nov-16 13:58N 49°28' E 000°13'0 0.0
2017-Nov-16 13:28N 49°28' E 000°13'0 0.0
2017-Nov-16 12:58N 49°28' E 000°13'0 0.0
2017-Nov-16 12:28N 49°28' E 000°13'0 0.0
2017-Nov-16 11:58N 49°28' E 000°13'0 0.0
2017-Nov-16 11:28N 49°28' E 000°13'0 0.0
2017-Nov-16 10:58N 49°28' E 000°13'0 0.0
2017-Nov-16 10:28N 49°28' E 000°13'0 0.0
2017-Nov-16 09:58N 49°28' E 000°13'0 0.0
2017-Nov-16 09:28N 49°28' E 000°13'0 0.0
2017-Nov-16 08:58N 49°28' E 000°13'0 0.0
2017-Nov-16 08:28N 49°28' E 000°13'0 0.0
2017-Nov-16 07:58N 49°28' E 000°13'0 0.0
2017-Nov-16 07:28N 49°28' E 000°13'0 0.0
2017-Nov-16 06:58N 49°28' E 000°13'0 0.0
2017-Nov-16 06:31N 49°28' E 000°13'0 0.0
2017-Nov-16 06:01N 49°28' E 000°13'0 0.0
2017-Nov-16 05:30N 49°28' E 000°13'0 0.0
2017-Nov-16 05:00N 49°28' E 000°13'0 0.0
2017-Nov-16 04:30N 49°28' E 000°13'0 0.0
2017-Nov-16 04:00N 49°28' E 000°13'0 0.0
2017-Nov-16 03:30N 49°28' E 000°13'0 0.0
2017-Nov-16 03:00N 49°28' E 000°13'0 0.0
2017-Nov-16 02:30N 49°28' E 000°13'0 0.0
2017-Nov-16 02:00N 49°28' E 000°13'0 0.0
2017-Nov-16 01:30N 49°28' E 000°13'0 0.0
2017-Nov-16 01:00N 49°28' E 000°13'0 0.0
2017-Nov-16 00:31N 49°28' E 000°13'0 0.0
2017-Nov-16 00:00N 49°28' E 000°13'0 0.0
2017-Nov-15 23:30N 49°28' E 000°13'0 0.0
2017-Nov-15 23:00N 49°28' E 000°13'0 0.0
2017-Nov-15 22:30N 49°28' E 000°13'0 0.0
2017-Nov-15 22:00N 49°28' E 000°13'0 0.0
2017-Nov-15 21:30N 49°28' E 000°13'0 0.0
2017-Nov-15 21:00N 49°28' E 000°13'0 0.0
2017-Nov-15 20:30N 49°28' E 000°13'0 0.0
2017-Nov-15 20:00N 49°28' E 000°13'1 2.7
2017-Nov-15 19:30N 49°29' E 000°11'0 0.3
2017-Nov-15 19:00N 49°29' E 000°10'4 7.0
2017-Nov-15 18:30N 49°29' E 000°05'611.4
2017-Nov-15 18:00N 49°31' W 000°04'5 9.5
2017-Nov-15 17:31N 49°32' W 000°10'2 4.0
2017-Nov-15 17:01N 49°33' W 000°13'1 1.7
2017-Nov-15 16:31N 49°33' W 000°14'1 2.3
2017-Nov-15 16:01N 49°34' W 000°16'4 8.4
2017-Nov-15 15:30N 49°35' W 000°22'612.2
2017-Nov-15 15:00N 49°39' W 000°30'714.4
2017-Nov-15 14:30N 49°46' W 000°30'714.8
2017-Nov-15 14:00N 49°53' W 000°30'714.8
2017-Nov-15 13:30N 50°01' W 000°30'714.8
2017-Nov-15 13:00N 50°08' W 000°30'715.0
2017-Nov-15 12:30N 50°16' W 000°30'814.3
2017-Nov-15 11:59N 50°23' W 000°27'816.3
2017-Nov-15 11:30N 50°26' W 000°17'815.8
2017-Nov-15 11:00N 50°29' W 000°05'815.6
2017-Nov-15 10:30N 50°31' E 000°07'815.3
2017-Nov-15 10:00N 50°33' E 000°18'714.9
2017-Nov-15 09:30N 50°35' E 000°30'714.2
2017-Nov-15 09:00N 50°39' E 000°39'714.2
2017-Nov-15 08:30N 50°43' E 000°48'713.9
2017-Nov-15 08:00N 50°47' E 000°57'714.0
2017-Nov-15 07:30N 50°52' E 001°06'714.4
2017-Nov-15 07:00N 50°57' E 001°14'815.5
2017-Nov-15 06:30N 51°02' E 001°23'816.8
2017-Nov-15 06:00N 51°06' E 001°34'917.1
2017-Nov-15 05:30N 51°12' E 001°45'816.8
2017-Nov-15 05:00N 51°19' E 001°53'815.3
2017-Nov-15 04:30N 51°25' E 001°60'714.6
2017-Nov-15 04:00N 51°22' E 002°11'714.2
2017-Nov-15 03:30N 51°21' E 002°22'915.1
2017-Nov-15 02:56N 51°23' E 002°36'613.3
2017-Nov-15 02:30N 51°23' E 002°45'611.3
2017-Nov-15 02:00N 51°23' E 002°54'714.2
2017-Nov-15 01:30N 51°24' E 003°05'714.6
2017-Nov-15 01:00N 51°25' E 003°17'714.7
2017-Nov-15 00:30N 51°25' E 003°28'510.6
2017-Nov-15 00:00N 51°26' E 003°37'510.6
2017-Nov-14 23:30N 51°23' E 003°43'612.3
2017-Nov-14 23:00N 51°21' E 003°53'510.9
2017-Nov-14 22:30N 51°26' E 003°58'4 7.9
2017-Nov-14 22:00N 51°23' E 004°03'510.7
2017-Nov-14 21:30N 51°24' E 004°11'5 9.3
2017-Nov-14 21:00N 51°20' E 004°16'4 7.5
2017-Nov-14 20:30N 51°17' E 004°15'0 0.0
2017-Nov-14 19:58N 51°17' E 004°15'1 1.8
2017-Nov-14 19:29N 51°16' E 004°14'0 0.0
2017-Nov-14 18:59N 51°16' E 004°14'0 0.0
2017-Nov-14 18:29N 51°16' E 004°14'0 0.0
2017-Nov-14 17:59N 51°16' E 004°14'0 0.0
2017-Nov-14 17:29N 51°16' E 004°14'0 0.0
2017-Nov-14 16:59N 51°16' E 004°14'0 0.0
2017-Nov-14 16:29N 51°16' E 004°14'0 0.0
2017-Nov-14 15:59N 51°16' E 004°14'0 0.0
2017-Nov-14 15:29N 51°16' E 004°14'0 0.0
2017-Nov-14 14:59N 51°16' E 004°14'0 0.0
2017-Nov-14 14:29N 51°16' E 004°14'0 0.0
2017-Nov-14 13:59N 51°16' E 004°14'0 0.0
2017-Nov-14 13:29N 51°16' E 004°14'0 0.0
2017-Nov-14 12:59N 51°16' E 004°14'0 0.0
2017-Nov-14 12:29N 51°16' E 004°14'0 0.0
2017-Nov-14 11:59N 51°16' E 004°14'0 0.0
2017-Nov-14 11:29N 51°16' E 004°14'0 0.0
2017-Nov-14 10:58N 51°16' E 004°14'0 0.0
2017-Nov-14 10:29N 51°16' E 004°14'0 0.0
2017-Nov-14 09:59N 51°16' E 004°14'0 0.0
2017-Nov-14 09:29N 51°16' E 004°14'0 0.0
2017-Nov-14 08:56N 51°16' E 004°14'0 0.0
2017-Nov-14 08:29N 51°16' E 004°14'0 0.0
2017-Nov-14 07:59N 51°16' E 004°14'0 0.0
2017-Nov-14 07:29N 51°16' E 004°14'0 0.0
2017-Nov-14 06:59N 51°16' E 004°14'0 0.0
2017-Nov-14 06:29N 51°16' E 004°14'0 0.0
2017-Nov-14 05:59N 51°16' E 004°14'0 0.0
2017-Nov-14 05:29N 51°16' E 004°14'0 0.0
2017-Nov-14 04:59N 51°16' E 004°14'0 0.0
2017-Nov-14 04:29N 51°16' E 004°14'0 0.0
2017-Nov-14 03:59N 51°16' E 004°14'0 0.0
2017-Nov-14 03:29N 51°16' E 004°14'0 0.0
2017-Nov-14 02:59N 51°16' E 004°14'0 0.0
2017-Nov-14 02:29N 51°16' E 004°14'0 0.0
2017-Nov-14 01:59N 51°16' E 004°14'0 0.0
2017-Nov-14 01:29N 51°16' E 004°14'0 0.0
2017-Nov-14 00:59N 51°16' E 004°14'0 0.0
2017-Nov-14 00:28N 51°16' E 004°14'0 0.0
2017-Nov-13 23:58N 51°16' E 004°14'0 0.0
2017-Nov-13 23:29N 51°16' E 004°14'0 0.0
2017-Nov-13 22:58N 51°16' E 004°14'0 0.0
2017-Nov-13 22:28N 51°16' E 004°14'0 0.0
2017-Nov-13 21:58N 51°16' E 004°14'52 2.3
2017-Nov-12 23:33N 51°52' E 003°15'0 3.9
2017-Nov-12 23:30N 51°52' E 003°15'2 3.8
2017-Nov-12 22:58N 51°52' E 003°19'1 1.7
2017-Nov-12 22:30N 51°53' E 003°19'3 1.2
2017-Nov-12 20:03N 51°51' E 003°14'0 3.2
2017-Nov-12 19:58N 51°51' E 003°15'2 3.1
2017-Nov-12 19:26N 51°52' E 003°17'2 3.3
2017-Nov-12 18:55N 51°52' E 003°20'2 3.4
2017-Nov-12 18:22N 51°52' E 003°23'1 1.7
2017-Nov-12 18:00N 51°52' E 003°22'2 2.7
2017-Nov-12 17:23N 51°52' E 003°19'0 1.2
2017-Nov-12 17:00N 51°52' E 003°19'2 2.4
2017-Nov-12 16:12N 51°52' E 003°22'1 2.0
2017-Nov-12 15:55N 51°52' E 003°21'0 0.9
2017-Nov-12 15:29N 51°51' E 003°21'2 0.9
2017-Nov-12 12:46N 51°49' E 003°22'0 0.3
2017-Nov-12 12:19N 51°49' E 003°22'0 0.1
2017-Nov-12 11:43N 51°49' E 003°22'0 0.0
2017-Nov-12 10:07N 51°49' E 003°22'0 0.1
2017-Nov-12 09:49N 51°49' E 003°22'0 0.1
2017-Nov-12 09:22N 51°49' E 003°22'0 0.0
2017-Nov-12 07:52N 51°49' E 003°22'0 0.0
2017-Nov-12 07:22N 51°49' E 003°22'0 0.0
2017-Nov-12 06:58N 51°49' E 003°22'0 0.0
2017-Nov-12 06:10N 51°49' E 003°22'0 0.2
2017-Nov-12 05:46N 51°49' E 003°22'0 0.2
2017-Nov-12 05:22N 51°49' E 003°22'0 0.0
2017-Nov-12 04:58N 51°49' E 003°22'0 0.1
2017-Nov-12 04:19N 51°49' E 003°22'0 0.0
2017-Nov-12 03:58N 51°49' E 003°22'0 0.0
2017-Nov-12 03:28N 51°49' E 003°22'0 0.0
2017-Nov-12 02:58N 51°49' E 003°22'0 0.0
2017-Nov-12 02:28N 51°49' E 003°22'0 0.0
2017-Nov-12 01:16N 51°49' E 003°22'0 0.0
2017-Nov-12 00:49N 51°49' E 003°22'0 0.0
2017-Nov-12 00:07N 51°49' E 003°22'0 0.1
2017-Nov-11 23:58N 51°49' E 003°22'0 0.0
2017-Nov-11 22:52N 51°49' E 003°22'0 0.0
2017-Nov-11 21:49N 51°49' E 003°22'0 0.0
2017-Nov-11 11:45N 51°49' E 003°22'0 0.1
2017-Nov-11 11:27N 51°49' E 003°22'0 0.0
2017-Nov-11 10:33N 51°49' E 003°22'0 0.0
2017-Nov-11 09:12N 51°49' E 003°22'0 0.0
2017-Nov-11 08:54N 51°49' E 003°22'0 0.1
2017-Nov-11 08:27N 51°49' E 003°22'0 0.1
2017-Nov-11 08:00N 51°49' E 003°22'0 0.0
2017-Nov-11 07:27N 51°49' E 003°22'0 0.0
2017-Nov-11 06:54N 51°49' E 003°22'0 0.0
2017-Nov-11 06:27N 51°49' E 003°22'0 0.0
2017-Nov-11 05:57N 51°49' E 003°22'0 0.0
2017-Nov-11 05:24N 51°49' E 003°22'0 0.1
2017-Nov-11 04:51N 51°49' E 003°22'0 0.1
2017-Nov-11 04:24N 51°49' E 003°22'0 0.0
2017-Nov-11 03:45N 51°49' E 003°22'0 0.0
2017-Nov-11 03:30N 51°49' E 003°22'0 0.0
2017-Nov-11 03:00N 51°49' E 003°22'0 0.0
2017-Nov-11 02:30N 51°49' E 003°22'0 0.0
2017-Nov-11 02:00N 51°49' E 003°22'0 0.1
2017-Nov-11 01:30N 51°49' E 003°22'0 0.0
2017-Nov-11 01:00N 51°49' E 003°22'0 0.0
2017-Nov-11 00:30N 51°49' E 003°22'0 0.0
2017-Nov-11 00:00N 51°49' E 003°22'0 0.0
2017-Nov-10 23:15N 51°49' E 003°22'0 0.0
2017-Nov-10 20:42N 51°49' E 003°22'0 0.0
2017-Nov-10 15:51N 51°49' E 003°22'0 0.0
2017-Nov-10 15:12N 51°49' E 003°22'0 0.2
2017-Nov-10 14:57N 51°49' E 003°22'0 0.1
2017-Nov-10 14:21N 51°49' E 003°22'0 0.0
2017-Nov-10 14:00N 51°49' E 003°22'0 0.0
2017-Nov-10 13:18N 51°49' E 003°22'0 0.0
2017-Nov-10 13:00N 51°49' E 003°22'0 0.0
2017-Nov-10 12:30N 51°49' E 003°22'0 0.0
2017-Nov-10 12:00N 51°49' E 003°22'0 0.2
2017-Nov-10 11:30N 51°49' E 003°22'0 0.2
2017-Nov-10 11:00N 51°49' E 003°22'0 0.1
2017-Nov-10 10:30N 51°49' E 003°22'0 0.1
2017-Nov-10 09:57N 51°49' E 003°22'0 0.1
2017-Nov-10 09:30N 51°49' E 003°22'0 0.1
2017-Nov-10 08:57N 51°49' E 003°22'0 0.1
2017-Nov-10 08:03N 51°49' E 003°22'0 0.2
2017-Nov-10 07:48N 51°49' E 003°22'0 0.0
2017-Nov-10 06:54N 51°49' E 003°22'0 0.0
2017-Nov-10 06:27N 51°49' E 003°22'0 0.0
2017-Nov-10 05:54N 51°49' E 003°22'0 0.0
2017-Nov-10 05:24N 51°49' E 003°22'0 0.1
2017-Nov-10 04:45N 51°49' E 003°21'0 0.0
2017-Nov-10 04:27N 51°49' E 003°22'0 0.1
2017-Nov-10 03:54N 51°49' E 003°22'0 0.0
2017-Nov-10 03:26N 51°49' E 003°22'0 0.0
2017-Nov-10 03:00N 51°49' E 003°22'0 0.0
2017-Nov-10 02:26N 51°49' E 003°22'0 0.1
2017-Nov-10 01:57N 51°49' E 003°22'0 0.0
2017-Nov-10 00:50N 51°49' E 003°21'0 0.0
2017-Nov-09 23:59N 51°49' E 003°21'0 0.0
2017-Nov-09 23:20N 51°49' E 003°22'0 0.0
2017-Nov-09 22:50N 51°49' E 003°22'0 0.1
2017-Nov-09 22:26N 51°49' E 003°22'0 0.0
2017-Nov-09 21:59N 51°49' E 003°22'0 0.0
2017-Nov-09 21:26N 51°49' E 003°22'0 0.1
2017-Nov-09 20:59N 51°49' E 003°22'0 0.0
2017-Nov-09 20:26N 51°49' E 003°22'0 0.0
2017-Nov-09 19:50N 51°49' E 003°22'0 0.0
2017-Nov-09 19:29N 51°49' E 003°22'0 0.0
2017-Nov-09 18:56N 51°49' E 003°22'0 0.1
2017-Nov-09 18:26N 51°49' E 003°22'0 0.0
2017-Nov-09 17:59N 51°49' E 003°22'0 0.0
2017-Nov-09 17:29N 51°49' E 003°22'0 0.0
2017-Nov-09 16:23N 51°49' E 003°22'0 0.0
2017-Nov-09 11:29N 51°49' E 003°21'0 0.1
2017-Nov-09 10:59N 51°49' E 003°21'0 0.0
2017-Nov-09 10:11N 51°49' E 003°21'0 0.1
2017-Nov-09 09:59N 51°49' E 003°21'0 0.1
2017-Nov-09 09:20N 51°49' E 003°21'0 0.1
2017-Nov-09 08:59N 51°49' E 003°21'0 0.0
2017-Nov-09 08:29N 51°49' E 003°21'0 0.0
2017-Nov-09 07:56N 51°49' E 003°21'0 0.0
2017-Nov-09 07:29N 51°49' E 003°21'0 0.0
2017-Nov-09 06:26N 51°49' E 003°21'0 0.1
2017-Nov-09 05:53N 51°49' E 003°21'0 0.0
2017-Nov-09 05:26N 51°49' E 003°21'0 0.0
2017-Nov-09 04:59N 51°49' E 003°21'0 0.0
2017-Nov-09 04:29N 51°49' E 003°21'0 0.0
2017-Nov-09 03:59N 51°49' E 003°21'0 0.0
2017-Nov-09 02:53N 51°49' E 003°21'0 0.0
2017-Nov-09 01:14N 51°49' E 003°21'0 0.0
2017-Nov-09 00:59N 51°49' E 003°21'0 0.0
2017-Nov-09 00:26N 51°49' E 003°21'0 0.0
2017-Nov-08 23:47N 51°49' E 003°21'0 0.0
2017-Nov-08 22:26N 51°49' E 003°21'  

Dump ship's entire track history